sensor_id;sensor_type;location;lat;lon;timestamp;P1;durP1;ratioP1;P2;durP2;ratioP2
68923;SDS011;55961;52.156;20.942;2024-02-14T00:01:36;19.52;;;7.65;;
68923;SDS011;55961;52.156;20.942;2024-02-14T00:04:03;18.43;;;7.60;;
68923;SDS011;55961;52.156;20.942;2024-02-14T00:06:29;18.20;;;8.10;;
68923;SDS011;55961;52.156;20.942;2024-02-14T00:08:59;19.13;;;8.00;;
68923;SDS011;55961;52.156;20.942;2024-02-14T00:11:26;21.00;;;7.95;;
68923;SDS011;55961;52.156;20.942;2024-02-14T00:13:51;19.75;;;7.47;;
68923;SDS011;55961;52.156;20.942;2024-02-14T00:16:18;23.30;;;7.93;;
68923;SDS011;55961;52.156;20.942;2024-02-14T00:18:43;19.90;;;7.15;;
68923;SDS011;55961;52.156;20.942;2024-02-14T00:21:09;15.82;;;7.35;;
68923;SDS011;55961;52.156;20.942;2024-02-14T00:23:35;22.67;;;8.07;;
68923;SDS011;55961;52.156;20.942;2024-02-14T00:26:01;18.02;;;7.50;;
68923;SDS011;55961;52.156;20.942;2024-02-14T00:28:27;18.80;;;6.93;;
68923;SDS011;55961;52.156;20.942;2024-02-14T00:30:54;21.65;;;7.45;;
68923;SDS011;55961;52.156;20.942;2024-02-14T00:33:20;18.67;;;7.77;;
68923;SDS011;55961;52.156;20.942;2024-02-14T00:35:47;17.37;;;7.33;;
68923;SDS011;55961;52.156;20.942;2024-02-14T00:38:13;16.63;;;7.40;;
68923;SDS011;55961;52.156;20.942;2024-02-14T00:40:39;17.50;;;7.30;;
68923;SDS011;55961;52.156;20.942;2024-02-14T00:43:05;22.47;;;8.00;;
68923;SDS011;55961;52.156;20.942;2024-02-14T00:45:31;16.90;;;7.07;;
68923;SDS011;55961;52.156;20.942;2024-02-14T00:47:56;23.02;;;8.05;;
68923;SDS011;55961;52.156;20.942;2024-02-14T00:50:23;19.55;;;8.05;;
68923;SDS011;55961;52.156;20.942;2024-02-14T00:52:48;19.63;;;7.23;;
68923;SDS011;55961;52.156;20.942;2024-02-14T00:55:15;19.88;;;7.82;;
68923;SDS011;55961;52.156;20.942;2024-02-14T00:57:40;20.48;;;8.15;;
68923;SDS011;55961;52.156;20.942;2024-02-14T01:00:07;19.13;;;8.03;;
68923;SDS011;55961;52.156;20.942;2024-02-14T01:02:34;23.38;;;8.43;;
68923;SDS011;55961;52.156;20.942;2024-02-14T01:05:00;23.08;;;9.07;;
68923;SDS011;55961;52.156;20.942;2024-02-14T01:07:26;20.95;;;8.80;;
68923;SDS011;55961;52.156;20.942;2024-02-14T01:09:52;19.70;;;8.50;;
68923;SDS011;55961;52.156;20.942;2024-02-14T01:12:17;19.40;;;8.75;;
68923;SDS011;55961;52.156;20.942;2024-02-14T01:14:44;21.90;;;8.80;;
68923;SDS011;55961;52.156;20.942;2024-02-14T01:17:10;21.17;;;9.20;;
68923;SDS011;55961;52.156;20.942;2024-02-14T01:19:36;24.03;;;11.27;;
68923;SDS011;55961;52.156;20.942;2024-02-14T01:22:02;22.88;;;11.93;;
68923;SDS011;55961;52.156;20.942;2024-02-14T01:24:28;21.80;;;9.77;;
68923;SDS011;55961;52.156;20.942;2024-02-14T01:26:55;22.17;;;9.60;;
68923;SDS011;55961;52.156;20.942;2024-02-14T01:29:21;20.73;;;9.10;;
68923;SDS011;55961;52.156;20.942;2024-02-14T01:31:48;22.35;;;9.05;;
68923;SDS011;55961;52.156;20.942;2024-02-14T01:34:15;19.92;;;9.18;;
68923;SDS011;55961;52.156;20.942;2024-02-14T01:36:41;19.38;;;9.57;;
68923;SDS011;55961;52.156;20.942;2024-02-14T01:39:07;19.40;;;8.17;;
68923;SDS011;55961;52.156;20.942;2024-02-14T01:41:54;21.38;;;8.95;;
68923;SDS011;55961;52.156;20.942;2024-02-14T01:44:20;20.50;;;8.25;;
68923;SDS011;55961;52.156;20.942;2024-02-14T01:46:46;20.02;;;8.80;;
68923;SDS011;55961;52.156;20.942;2024-02-14T01:49:13;21.77;;;8.80;;
68923;SDS011;55961;52.156;20.942;2024-02-14T01:51:42;19.10;;;7.90;;
68923;SDS011;55961;52.156;20.942;2024-02-14T01:54:11;18.48;;;8.32;;
68923;SDS011;55961;52.156;20.942;2024-02-14T01:56:38;16.80;;;7.45;;
68923;SDS011;55961;52.156;20.942;2024-02-14T01:59:05;21.52;;;8.15;;
68923;SDS011;55961;52.156;20.942;2024-02-14T02:01:31;19.43;;;7.67;;
68923;SDS011;55961;52.156;20.942;2024-02-14T02:03:58;18.67;;;8.23;;
68923;SDS011;55961;52.156;20.942;2024-02-14T02:06:24;19.52;;;8.38;;
68923;SDS011;55961;52.156;20.942;2024-02-14T02:08:51;16.88;;;6.95;;
68923;SDS011;55961;52.156;20.942;2024-02-14T02:11:17;18.90;;;8.30;;
68923;SDS011;55961;52.156;20.942;2024-02-14T02:13:44;19.85;;;8.43;;
68923;SDS011;55961;52.156;20.942;2024-02-14T02:16:10;23.65;;;9.02;;
68923;SDS011;55961;52.156;20.942;2024-02-14T02:18:36;17.58;;;8.25;;
68923;SDS011;55961;52.156;20.942;2024-02-14T02:21:02;21.10;;;8.17;;
68923;SDS011;55961;52.156;20.942;2024-02-14T02:23:35;22.30;;;9.60;;
68923;SDS011;55961;52.156;20.942;2024-02-14T02:26:01;22.15;;;9.00;;
68923;SDS011;55961;52.156;20.942;2024-02-14T02:28:27;20.80;;;8.45;;
68923;SDS011;55961;52.156;20.942;2024-02-14T02:30:53;19.53;;;8.87;;
68923;SDS011;55961;52.156;20.942;2024-02-14T02:33:21;22.25;;;9.25;;
68923;SDS011;55961;52.156;20.942;2024-02-14T02:35:48;20.80;;;8.32;;
68923;SDS011;55961;52.156;20.942;2024-02-14T02:38:15;20.80;;;8.93;;
68923;SDS011;55961;52.156;20.942;2024-02-14T02:40:42;23.02;;;8.95;;
68923;SDS011;55961;52.156;20.942;2024-02-14T02:43:09;18.60;;;8.40;;
68923;SDS011;55961;52.156;20.942;2024-02-14T02:45:35;23.48;;;9.20;;
68923;SDS011;55961;52.156;20.942;2024-02-14T02:48:01;20.92;;;8.70;;
68923;SDS011;55961;52.156;20.942;2024-02-14T02:50:27;23.50;;;8.75;;
68923;SDS011;55961;52.156;20.942;2024-02-14T02:52:55;21.40;;;8.57;;
68923;SDS011;55961;52.156;20.942;2024-02-14T02:55:22;21.40;;;8.97;;
68923;SDS011;55961;52.156;20.942;2024-02-14T02:57:48;18.75;;;8.55;;
68923;SDS011;55961;52.156;20.942;2024-02-14T03:00:15;24.08;;;9.15;;
68923;SDS011;55961;52.156;20.942;2024-02-14T03:02:41;23.33;;;10.18;;
68923;SDS011;55961;52.156;20.942;2024-02-14T03:05:10;19.40;;;9.57;;
68923;SDS011;55961;52.156;20.942;2024-02-14T03:07:45;19.40;;;8.27;;
68923;SDS011;55961;52.156;20.942;2024-02-14T03:10:14;22.38;;;9.13;;
68923;SDS011;55961;52.156;20.942;2024-02-14T03:12:49;25.90;;;9.75;;
68923;SDS011;55961;52.156;20.942;2024-02-14T03:15:15;20.48;;;8.35;;
68923;SDS011;55961;52.156;20.942;2024-02-14T03:17:41;18.60;;;8.38;;
68923;SDS011;55961;52.156;20.942;2024-02-14T03:20:08;20.03;;;8.70;;
68923;SDS011;55961;52.156;20.942;2024-02-14T03:22:40;18.65;;;8.93;;
68923;SDS011;55961;52.156;20.942;2024-02-14T03:25:18;21.90;;;9.45;;
68923;SDS011;55961;52.156;20.942;2024-02-14T03:27:45;20.73;;;8.65;;
68923;SDS011;55961;52.156;20.942;2024-02-14T03:30:16;22.38;;;9.77;;
68923;SDS011;55961;52.156;20.942;2024-02-14T03:32:43;22.50;;;9.67;;
68923;SDS011;55961;52.156;20.942;2024-02-14T03:35:09;22.05;;;9.38;;
68923;SDS011;55961;52.156;20.942;2024-02-14T03:37:37;20.92;;;9.93;;
68923;SDS011;55961;52.156;20.942;2024-02-14T03:40:04;23.38;;;10.65;;
68923;SDS011;55961;52.156;20.942;2024-02-14T03:42:32;22.35;;;9.63;;
68923;SDS011;55961;52.156;20.942;2024-02-14T03:44:59;23.50;;;10.07;;
68923;SDS011;55961;52.156;20.942;2024-02-14T03:47:31;22.58;;;9.88;;
68923;SDS011;55961;52.156;20.942;2024-02-14T03:50:00;22.13;;;9.80;;
68923;SDS011;55961;52.156;20.942;2024-02-14T03:52:27;24.35;;;10.02;;
68923;SDS011;55961;52.156;20.942;2024-02-14T03:54:55;22.50;;;9.73;;
68923;SDS011;55961;52.156;20.942;2024-02-14T03:57:21;26.67;;;10.17;;
68923;SDS011;55961;52.156;20.942;2024-02-14T03:59:47;23.13;;;9.48;;
68923;SDS011;55961;52.156;20.942;2024-02-14T04:02:13;28.15;;;10.23;;
68923;SDS011;55961;52.156;20.942;2024-02-14T04:04:42;24.55;;;10.23;;
68923;SDS011;55961;52.156;20.942;2024-02-14T04:07:09;23.80;;;9.73;;
68923;SDS011;55961;52.156;20.942;2024-02-14T04:09:35;23.60;;;9.45;;
68923;SDS011;55961;52.156;20.942;2024-02-14T04:12:01;27.30;;;10.68;;
68923;SDS011;55961;52.156;20.942;2024-02-14T04:14:27;24.30;;;10.48;;
68923;SDS011;55961;52.156;20.942;2024-02-14T04:16:54;25.93;;;11.77;;
68923;SDS011;55961;52.156;20.942;2024-02-14T04:19:20;25.05;;;11.25;;
68923;SDS011;55961;52.156;20.942;2024-02-14T04:21:46;25.77;;;12.50;;
68923;SDS011;55961;52.156;20.942;2024-02-14T04:24:12;25.33;;;11.60;;
68923;SDS011;55961;52.156;20.942;2024-02-14T04:26:38;27.40;;;12.23;;
68923;SDS011;55961;52.156;20.942;2024-02-14T04:29:04;28.13;;;13.40;;
68923;SDS011;55961;52.156;20.942;2024-02-14T04:31:30;29.65;;;13.07;;
68923;SDS011;55961;52.156;20.942;2024-02-14T04:33:57;24.98;;;12.93;;
68923;SDS011;55961;52.156;20.942;2024-02-14T04:36:24;29.63;;;12.93;;
68923;SDS011;55961;52.156;20.942;2024-02-14T04:38:49;26.57;;;11.70;;
68923;SDS011;55961;52.156;20.942;2024-02-14T04:41:17;26.23;;;12.65;;
68923;SDS011;55961;52.156;20.942;2024-02-14T04:43:43;28.75;;;12.10;;
68923;SDS011;55961;52.156;20.942;2024-02-14T04:46:09;27.60;;;11.50;;
68923;SDS011;55961;52.156;20.942;2024-02-14T04:48:35;29.43;;;11.87;;
68923;SDS011;55961;52.156;20.942;2024-02-14T04:51:02;26.38;;;11.05;;
68923;SDS011;55961;52.156;20.942;2024-02-14T04:53:29;22.30;;;10.57;;
68923;SDS011;55961;52.156;20.942;2024-02-14T04:55:55;21.95;;;10.45;;
68923;SDS011;55961;52.156;20.942;2024-02-14T04:58:22;26.23;;;11.80;;
68923;SDS011;55961;52.156;20.942;2024-02-14T05:00:48;26.73;;;11.90;;
68923;SDS011;55961;52.156;20.942;2024-02-14T05:03:14;26.48;;;12.35;;
68923;SDS011;55961;52.156;20.942;2024-02-14T05:05:41;31.17;;;13.00;;
68923;SDS011;55961;52.156;20.942;2024-02-14T05:08:07;30.98;;;12.80;;
68923;SDS011;55961;52.156;20.942;2024-02-14T05:10:33;24.67;;;11.60;;
68923;SDS011;55961;52.156;20.942;2024-02-14T05:12:59;27.35;;;11.85;;
68923;SDS011;55961;52.156;20.942;2024-02-14T05:15:26;29.52;;;13.25;;
68923;SDS011;55961;52.156;20.942;2024-02-14T05:17:52;28.60;;;12.73;;
68923;SDS011;55961;52.156;20.942;2024-02-14T05:20:18;29.52;;;12.25;;
68923;SDS011;55961;52.156;20.942;2024-02-14T05:22:44;30.13;;;12.88;;
68923;SDS011;55961;52.156;20.942;2024-02-14T05:25:10;26.58;;;12.02;;
68923;SDS011;55961;52.156;20.942;2024-02-14T05:27:36;26.40;;;12.97;;
68923;SDS011;55961;52.156;20.942;2024-02-14T05:30:02;25.05;;;11.88;;
68923;SDS011;55961;52.156;20.942;2024-02-14T05:32:34;24.70;;;11.13;;
68923;SDS011;55961;52.156;20.942;2024-02-14T05:35:00;21.90;;;11.85;;
68923;SDS011;55961;52.156;20.942;2024-02-14T05:37:27;26.92;;;11.55;;
68923;SDS011;55961;52.156;20.942;2024-02-14T05:39:54;22.70;;;11.27;;
68923;SDS011;55961;52.156;20.942;2024-02-14T05:42:20;23.92;;;10.48;;
68923;SDS011;55961;52.156;20.942;2024-02-14T05:44:47;24.73;;;11.40;;
68923;SDS011;55961;52.156;20.942;2024-02-14T05:47:13;23.95;;;10.70;;
68923;SDS011;55961;52.156;20.942;2024-02-14T05:49:40;27.23;;;12.35;;
68923;SDS011;55961;52.156;20.942;2024-02-14T05:52:06;21.43;;;10.43;;
68923;SDS011;55961;52.156;20.942;2024-02-14T05:54:33;27.35;;;11.02;;
68923;SDS011;55961;52.156;20.942;2024-02-14T05:56:59;22.23;;;10.45;;
68923;SDS011;55961;52.156;20.942;2024-02-14T05:59:27;23.23;;;10.25;;
68923;SDS011;55961;52.156;20.942;2024-02-14T06:01:53;33.65;;;10.63;;
68923;SDS011;55961;52.156;20.942;2024-02-14T06:04:19;23.70;;;10.60;;
68923;SDS011;55961;52.156;20.942;2024-02-14T06:06:45;25.55;;;10.82;;
68923;SDS011;55961;52.156;20.942;2024-02-14T06:09:11;24.30;;;10.95;;
68923;SDS011;55961;52.156;20.942;2024-02-14T06:11:37;25.43;;;10.93;;
68923;SDS011;55961;52.156;20.942;2024-02-14T06:14:05;26.58;;;10.32;;
68923;SDS011;55961;52.156;20.942;2024-02-14T06:16:32;28.73;;;12.05;;
68923;SDS011;55961;52.156;20.942;2024-02-14T06:18:58;31.15;;;13.55;;
68923;SDS011;55961;52.156;20.942;2024-02-14T06:21:25;38.45;;;15.85;;
68923;SDS011;55961;52.156;20.942;2024-02-14T06:23:52;35.03;;;14.80;;
68923;SDS011;55961;52.156;20.942;2024-02-14T06:26:18;35.75;;;14.15;;
68923;SDS011;55961;52.156;20.942;2024-02-14T06:28:44;33.58;;;14.77;;
68923;SDS011;55961;52.156;20.942;2024-02-14T06:31:10;29.92;;;13.68;;
68923;SDS011;55961;52.156;20.942;2024-02-14T06:33:37;38.15;;;14.60;;
68923;SDS011;55961;52.156;20.942;2024-02-14T06:36:03;33.30;;;14.87;;
68923;SDS011;55961;52.156;20.942;2024-02-14T06:38:33;38.50;;;16.30;;
68923;SDS011;55961;52.156;20.942;2024-02-14T06:40:59;38.95;;;16.65;;
68923;SDS011;55961;52.156;20.942;2024-02-14T06:43:26;45.97;;;18.98;;
68923;SDS011;55961;52.156;20.942;2024-02-14T06:45:51;53.90;;;23.30;;
68923;SDS011;55961;52.156;20.942;2024-02-14T06:48:17;48.55;;;20.15;;
68923;SDS011;55961;52.156;20.942;2024-02-14T06:50:47;33.75;;;15.55;;
68923;SDS011;55961;52.156;20.942;2024-02-14T06:53:13;37.95;;;15.48;;
68923;SDS011;55961;52.156;20.942;2024-02-14T06:55:38;33.07;;;14.90;;
68923;SDS011;55961;52.156;20.942;2024-02-14T06:58:04;41.78;;;14.18;;
68923;SDS011;55961;52.156;20.942;2024-02-14T07:00:30;34.38;;;15.45;;
68923;SDS011;55961;52.156;20.942;2024-02-14T07:02:56;40.53;;;15.27;;
68923;SDS011;55961;52.156;20.942;2024-02-14T07:05:22;49.00;;;16.35;;
68923;SDS011;55961;52.156;20.942;2024-02-14T07:07:48;41.53;;;15.40;;
68923;SDS011;55961;52.156;20.942;2024-02-14T07:10:15;40.25;;;16.83;;
68923;SDS011;55961;52.156;20.942;2024-02-14T07:12:41;37.90;;;15.00;;
68923;SDS011;55961;52.156;20.942;2024-02-14T07:15:07;35.55;;;14.88;;
68923;SDS011;55961;52.156;20.942;2024-02-14T07:17:33;27.15;;;13.20;;
68923;SDS011;55961;52.156;20.942;2024-02-14T07:19:59;28.17;;;13.40;;
68923;SDS011;55961;52.156;20.942;2024-02-14T07:22:26;37.95;;;18.38;;
68923;SDS011;55961;52.156;20.942;2024-02-14T07:24:52;36.42;;;17.50;;
68923;SDS011;55961;52.156;20.942;2024-02-14T07:27:19;31.42;;;14.98;;
68923;SDS011;55961;52.156;20.942;2024-02-14T07:29:46;31.73;;;14.77;;
68923;SDS011;55961;52.156;20.942;2024-02-14T07:32:12;31.98;;;13.43;;
68923;SDS011;55961;52.156;20.942;2024-02-14T07:34:38;28.48;;;12.18;;
68923;SDS011;55961;52.156;20.942;2024-02-14T07:37:05;31.75;;;12.40;;
68923;SDS011;55961;52.156;20.942;2024-02-14T07:39:31;28.93;;;12.27;;
68923;SDS011;55961;52.156;20.942;2024-02-14T07:41:57;31.98;;;12.73;;
68923;SDS011;55961;52.156;20.942;2024-02-14T07:44:23;28.52;;;11.35;;
68923;SDS011;55961;52.156;20.942;2024-02-14T07:46:49;23.97;;;11.27;;
68923;SDS011;55961;52.156;20.942;2024-02-14T07:49:15;33.35;;;12.68;;
68923;SDS011;55961;52.156;20.942;2024-02-14T07:51:41;39.08;;;15.63;;
68923;SDS011;55961;52.156;20.942;2024-02-14T07:54:07;29.23;;;10.83;;
68923;SDS011;55961;52.156;20.942;2024-02-14T07:56:33;27.27;;;11.70;;
68923;SDS011;55961;52.156;20.942;2024-02-14T07:58:59;27.90;;;11.13;;
68923;SDS011;55961;52.156;20.942;2024-02-14T08:01:25;25.90;;;10.95;;
68923;SDS011;55961;52.156;20.942;2024-02-14T08:03:51;27.67;;;11.00;;
68923;SDS011;55961;52.156;20.942;2024-02-14T08:06:17;27.43;;;11.03;;
68923;SDS011;55961;52.156;20.942;2024-02-14T08:08:43;29.02;;;10.68;;
68923;SDS011;55961;52.156;20.942;2024-02-14T08:11:14;26.65;;;11.00;;
68923;SDS011;55961;52.156;20.942;2024-02-14T08:13:40;34.53;;;12.13;;
68923;SDS011;55961;52.156;20.942;2024-02-14T08:16:06;35.55;;;13.88;;
68923;SDS011;55961;52.156;20.942;2024-02-14T08:18:32;25.92;;;10.48;;
68923;SDS011;55961;52.156;20.942;2024-02-14T08:20:58;25.38;;;10.65;;
68923;SDS011;55961;52.156;20.942;2024-02-14T08:23:24;26.87;;;10.87;;
68923;SDS011;55961;52.156;20.942;2024-02-14T08:25:50;22.85;;;9.05;;
68923;SDS011;55961;52.156;20.942;2024-02-14T08:28:16;24.55;;;9.52;;
68923;SDS011;55961;52.156;20.942;2024-02-14T08:30:46;23.50;;;8.30;;
68923;SDS011;55961;52.156;20.942;2024-02-14T08:33:13;19.27;;;7.13;;
68923;SDS011;55961;52.156;20.942;2024-02-14T08:35:39;16.27;;;7.50;;
68923;SDS011;55961;52.156;20.942;2024-02-14T08:38:04;15.45;;;7.30;;
68923;SDS011;55961;52.156;20.942;2024-02-14T08:40:32;16.98;;;7.00;;
68923;SDS011;55961;52.156;20.942;2024-02-14T08:42:57;17.23;;;6.60;;
68923;SDS011;55961;52.156;20.942;2024-02-14T08:45:24;16.98;;;6.68;;
68923;SDS011;55961;52.156;20.942;2024-02-14T08:47:55;15.27;;;6.00;;
68923;SDS011;55961;52.156;20.942;2024-02-14T08:50:22;14.68;;;6.20;;
68923;SDS011;55961;52.156;20.942;2024-02-14T08:52:48;14.00;;;4.90;;
68923;SDS011;55961;52.156;20.942;2024-02-14T08:55:14;14.05;;;4.82;;
68923;SDS011;55961;52.156;20.942;2024-02-14T08:57:42;13.27;;;5.22;;
68923;SDS011;55961;52.156;20.942;2024-02-14T09:00:09;12.57;;;4.47;;
68923;SDS011;55961;52.156;20.942;2024-02-14T09:02:36;15.93;;;7.63;;
68923;SDS011;55961;52.156;20.942;2024-02-14T09:05:02;17.98;;;6.05;;
68923;SDS011;55961;52.156;20.942;2024-02-14T09:07:31;12.55;;;4.10;;
68923;SDS011;55961;52.156;20.942;2024-02-14T09:09:59;7.38;;;2.88;;
68923;SDS011;55961;52.156;20.942;2024-02-14T09:12:25;10.05;;;4.00;;
68923;SDS011;55961;52.156;20.942;2024-02-14T09:14:51;11.97;;;3.83;;
68923;SDS011;55961;52.156;20.942;2024-02-14T09:17:17;9.45;;;3.67;;
68923;SDS011;55961;52.156;20.942;2024-02-14T09:19:43;11.18;;;4.13;;
68923;SDS011;55961;52.156;20.942;2024-02-14T09:22:09;12.20;;;3.47;;
68923;SDS011;55961;52.156;20.942;2024-02-14T09:24:35;12.87;;;3.93;;
68923;SDS011;55961;52.156;20.942;2024-02-14T09:27:01;10.52;;;2.90;;
68923;SDS011;55961;52.156;20.942;2024-02-14T09:29:28;6.38;;;2.15;;
68923;SDS011;55961;52.156;20.942;2024-02-14T09:31:54;9.32;;;2.70;;
68923;SDS011;55961;52.156;20.942;2024-02-14T09:34:20;7.03;;;2.57;;
68923;SDS011;55961;52.156;20.942;2024-02-14T09:36:50;9.32;;;3.35;;
68923;SDS011;55961;52.156;20.942;2024-02-14T09:39:17;9.10;;;3.13;;
68923;SDS011;55961;52.156;20.942;2024-02-14T09:41:43;10.85;;;2.78;;
68923;SDS011;55961;52.156;20.942;2024-02-14T09:44:16;6.45;;;2.45;;
68923;SDS011;55961;52.156;20.942;2024-02-14T09:46:43;6.47;;;2.53;;
68923;SDS011;55961;52.156;20.942;2024-02-14T09:49:09;8.23;;;2.97;;
68923;SDS011;55961;52.156;20.942;2024-02-14T09:51:36;8.35;;;2.50;;
68923;SDS011;55961;52.156;20.942;2024-02-14T09:54:04;8.80;;;2.92;;
68923;SDS011;55961;52.156;20.942;2024-02-14T09:56:30;7.23;;;2.60;;
68923;SDS011;55961;52.156;20.942;2024-02-14T09:58:57;6.43;;;2.30;;
68923;SDS011;55961;52.156;20.942;2024-02-14T10:01:25;9.13;;;2.10;;
68923;SDS011;55961;52.156;20.942;2024-02-14T10:03:53;9.07;;;1.73;;
68923;SDS011;55961;52.156;20.942;2024-02-14T10:06:20;5.97;;;2.10;;
68923;SDS011;55961;52.156;20.942;2024-02-14T10:08:50;5.77;;;1.33;;
68923;SDS011;55961;52.156;20.942;2024-02-14T10:11:17;6.60;;;2.25;;
68923;SDS011;55961;52.156;20.942;2024-02-14T10:13:47;5.78;;;1.98;;
68923;SDS011;55961;52.156;20.942;2024-02-14T10:16:16;9.52;;;2.42;;
68923;SDS011;55961;52.156;20.942;2024-02-14T10:18:44;6.70;;;2.13;;
68923;SDS011;55961;52.156;20.942;2024-02-14T10:21:15;6.47;;;2.10;;
68923;SDS011;55961;52.156;20.942;2024-02-14T10:23:45;6.05;;;1.73;;
68923;SDS011;55961;52.156;20.942;2024-02-14T10:26:15;5.15;;;1.67;;
68923;SDS011;55961;52.156;20.942;2024-02-14T10:28:42;4.07;;;1.40;;
68923;SDS011;55961;52.156;20.942;2024-02-14T10:31:09;4.65;;;1.40;;
68923;SDS011;55961;52.156;20.942;2024-02-14T10:33:36;5.60;;;1.80;;
68923;SDS011;55961;52.156;20.942;2024-02-14T10:36:02;6.03;;;1.23;;
68923;SDS011;55961;52.156;20.942;2024-02-14T10:38:32;3.08;;;0.90;;
68923;SDS011;55961;52.156;20.942;2024-02-14T10:41:02;4.25;;;1.13;;
68923;SDS011;55961;52.156;20.942;2024-02-14T10:43:28;5.97;;;1.20;;
68923;SDS011;55961;52.156;20.942;2024-02-14T10:45:54;6.80;;;1.37;;
68923;SDS011;55961;52.156;20.942;2024-02-14T10:48:24;5.05;;;1.60;;
68923;SDS011;55961;52.156;20.942;2024-02-14T10:50:54;5.22;;;0.95;;
68923;SDS011;55961;52.156;20.942;2024-02-14T10:53:23;9.00;;;2.40;;
68923;SDS011;55961;52.156;20.942;2024-02-14T10:55:53;5.57;;;1.88;;
68923;SDS011;55961;52.156;20.942;2024-02-14T10:58:24;6.93;;;1.43;;
68923;SDS011;55961;52.156;20.942;2024-02-14T11:00:52;4.25;;;1.40;;
68923;SDS011;55961;52.156;20.942;2024-02-14T11:03:18;5.80;;;2.15;;
68923;SDS011;55961;52.156;20.942;2024-02-14T11:05:45;4.88;;;1.58;;
68923;SDS011;55961;52.156;20.942;2024-02-14T11:08:18;6.45;;;1.83;;
68923;SDS011;55961;52.156;20.942;2024-02-14T11:10:54;5.23;;;1.57;;
68923;SDS011;55961;52.156;20.942;2024-02-14T11:13:28;6.18;;;1.55;;
68923;SDS011;55961;52.156;20.942;2024-02-14T11:15:56;4.65;;;1.58;;
68923;SDS011;55961;52.156;20.942;2024-02-14T11:18:26;5.13;;;1.42;;
68923;SDS011;55961;52.156;20.942;2024-02-14T11:20:54;4.15;;;1.10;;
68923;SDS011;55961;52.156;20.942;2024-02-14T11:23:22;6.77;;;1.50;;
68923;SDS011;55961;52.156;20.942;2024-02-14T11:25:48;3.53;;;1.10;;
68923;SDS011;55961;52.156;20.942;2024-02-14T11:30:41;5.78;;;1.20;;
68923;SDS011;55961;52.156;20.942;2024-02-14T11:33:10;4.93;;;1.17;;
68923;SDS011;55961;52.156;20.942;2024-02-14T11:35:40;5.50;;;1.00;;
68923;SDS011;55961;52.156;20.942;2024-02-14T11:38:10;4.80;;;1.40;;
68923;SDS011;55961;52.156;20.942;2024-02-14T11:40:36;4.60;;;1.50;;
68923;SDS011;55961;52.156;20.942;2024-02-14T11:43:05;5.45;;;1.67;;
68923;SDS011;55961;52.156;20.942;2024-02-14T11:45:43;7.87;;;1.67;;
68923;SDS011;55961;52.156;20.942;2024-02-14T11:48:17;3.50;;;1.00;;
68923;SDS011;55961;52.156;20.942;2024-02-14T11:50:45;4.13;;;1.30;;
68923;SDS011;55961;52.156;20.942;2024-02-14T11:53:13;2.95;;;0.95;;
68923;SDS011;55961;52.156;20.942;2024-02-14T11:55:42;4.03;;;1.25;;
68923;SDS011;55961;52.156;20.942;2024-02-14T11:58:11;4.60;;;1.27;;
68923;SDS011;55961;52.156;20.942;2024-02-14T12:00:39;3.85;;;1.20;;
68923;SDS011;55961;52.156;20.942;2024-02-14T12:03:06;6.57;;;1.70;;
68923;SDS011;55961;52.156;20.942;2024-02-14T12:05:36;7.45;;;1.80;;
68923;SDS011;55961;52.156;20.942;2024-02-14T12:08:06;11.10;;;2.90;;
68923;SDS011;55961;52.156;20.942;2024-02-14T12:10:34;5.60;;;1.37;;
68923;SDS011;55961;52.156;20.942;2024-02-14T12:13:10;4.25;;;1.08;;
68923;SDS011;55961;52.156;20.942;2024-02-14T12:15:39;3.80;;;1.10;;
68923;SDS011;55961;52.156;20.942;2024-02-14T12:18:09;6.07;;;1.85;;
68923;SDS011;55961;52.156;20.942;2024-02-14T12:20:36;9.40;;;1.65;;
68923;SDS011;55961;52.156;20.942;2024-02-14T12:23:06;5.27;;;2.20;;
68923;SDS011;55961;52.156;20.942;2024-02-14T12:25:32;7.05;;;2.92;;
68923;SDS011;55961;52.156;20.942;2024-02-14T12:27:59;10.75;;;3.83;;
68923;SDS011;55961;52.156;20.942;2024-02-14T12:30:33;10.05;;;2.67;;
68923;SDS011;55961;52.156;20.942;2024-02-14T12:33:13;10.13;;;2.27;;
68923;SDS011;55961;52.156;20.942;2024-02-14T12:35:46;10.20;;;3.72;;
68923;SDS011;55961;52.156;20.942;2024-02-14T12:38:14;5.75;;;1.98;;
68923;SDS011;55961;52.156;20.942;2024-02-14T12:40:41;5.47;;;2.33;;
68923;SDS011;55961;52.156;20.942;2024-02-14T12:43:08;7.45;;;2.53;;
68923;SDS011;55961;52.156;20.942;2024-02-14T12:45:34;5.33;;;1.57;;
68923;SDS011;55961;52.156;20.942;2024-02-14T12:48:01;5.38;;;1.40;;
68923;SDS011;55961;52.156;20.942;2024-02-14T12:50:27;5.43;;;1.80;;
68923;SDS011;55961;52.156;20.942;2024-02-14T12:52:53;4.70;;;1.55;;
68923;SDS011;55961;52.156;20.942;2024-02-14T12:55:19;5.40;;;1.43;;
68923;SDS011;55961;52.156;20.942;2024-02-14T12:57:45;5.00;;;1.42;;
68923;SDS011;55961;52.156;20.942;2024-02-14T13:00:11;6.88;;;2.15;;
68923;SDS011;55961;52.156;20.942;2024-02-14T13:02:38;6.30;;;2.05;;
68923;SDS011;55961;52.156;20.942;2024-02-14T13:05:04;5.72;;;2.25;;
68923;SDS011;55961;52.156;20.942;2024-02-14T13:07:31;5.33;;;1.47;;
68923;SDS011;55961;52.156;20.942;2024-02-14T13:09:56;4.57;;;1.33;;
68923;SDS011;55961;52.156;20.942;2024-02-14T13:12:23;14.15;;;5.88;;
68923;SDS011;55961;52.156;20.942;2024-02-14T13:14:48;7.93;;;3.15;;
68923;SDS011;55961;52.156;20.942;2024-02-14T13:17:15;6.80;;;2.27;;
68923;SDS011;55961;52.156;20.942;2024-02-14T13:19:41;5.72;;;1.73;;
68923;SDS011;55961;52.156;20.942;2024-02-14T13:22:08;5.03;;;1.67;;
68923;SDS011;55961;52.156;20.942;2024-02-14T13:24:35;6.38;;;1.70;;
68923;SDS011;55961;52.156;20.942;2024-02-14T13:27:01;6.63;;;1.92;;
68923;SDS011;55961;52.156;20.942;2024-02-14T13:29:27;5.10;;;2.00;;
68923;SDS011;55961;52.156;20.942;2024-02-14T13:31:53;6.05;;;1.95;;
68923;SDS011;55961;52.156;20.942;2024-02-14T13:34:19;5.07;;;1.30;;
68923;SDS011;55961;52.156;20.942;2024-02-14T13:36:48;5.80;;;2.05;;
68923;SDS011;55961;52.156;20.942;2024-02-14T13:39:14;6.53;;;1.97;;
68923;SDS011;55961;52.156;20.942;2024-02-14T13:41:41;4.97;;;1.80;;
68923;SDS011;55961;52.156;20.942;2024-02-14T13:44:09;4.68;;;1.50;;
68923;SDS011;55961;52.156;20.942;2024-02-14T13:46:36;5.70;;;1.58;;
68923;SDS011;55961;52.156;20.942;2024-02-14T13:49:02;4.93;;;1.63;;
68923;SDS011;55961;52.156;20.942;2024-02-14T13:51:29;7.63;;;1.87;;
68923;SDS011;55961;52.156;20.942;2024-02-14T13:53:54;5.68;;;1.52;;
68923;SDS011;55961;52.156;20.942;2024-02-14T13:56:21;4.45;;;1.30;;
68923;SDS011;55961;52.156;20.942;2024-02-14T13:58:50;5.28;;;1.38;;
68923;SDS011;55961;52.156;20.942;2024-02-14T14:01:17;5.10;;;1.60;;
68923;SDS011;55961;52.156;20.942;2024-02-14T14:03:43;10.18;;;4.05;;
68923;SDS011;55961;52.156;20.942;2024-02-14T14:06:09;5.40;;;1.73;;
68923;SDS011;55961;52.156;20.942;2024-02-14T14:08:37;5.07;;;1.80;;
68923;SDS011;55961;52.156;20.942;2024-02-14T14:11:03;6.25;;;2.25;;
68923;SDS011;55961;52.156;20.942;2024-02-14T14:13:39;5.60;;;1.53;;
68923;SDS011;55961;52.156;20.942;2024-02-14T14:16:05;6.13;;;1.70;;
68923;SDS011;55961;52.156;20.942;2024-02-14T14:18:31;6.20;;;2.28;;
68923;SDS011;55961;52.156;20.942;2024-02-14T14:20:57;5.63;;;2.00;;
68923;SDS011;55961;52.156;20.942;2024-02-14T14:23:23;6.37;;;1.87;;